ユジノサハリンスク の空港の天気 - METARとTAF

ホムトヴォ空港(ユジノサハリンスク) ( UHSS / UUS ) - ロシア ユジノサハリンスク
飛行場実況気象(Metar)
観測時間08/26 04:30 VLAT (08/25 18:30 UTC)
風向・風速静穏 0m/s
視程10km以上
天気現象弱いしゅう雨
全天の4割程度の雲 雲底高度 790m
気温11℃
湿度94%
気圧1012hPa
METARUHSS 251830Z 00000MPS 9999 -SHRA SCT026CB 11/10 Q1012 R01/250255 NOSIG RMK MT OBSC QFE757/1010
過去の天気等 Google飛行場航空写真 Wunderground天気予報

過去48時間のMETAR

飛行場予報(TAF)
発表時間: 8/26 03:00 VLAT (8/25 17:00 UTC)
予報対象時間: 26日4時 VLAT ~ 27日10時 VLAT
風向・風速北 3m/s
視程10km以上
全天の8割程度の雲 雲底高度 210m
全天の8割程度の積乱雲 雲底高度 610m
26日4時 VLAT ~ 26日9時 VLAT に一時的に
視程2100m
天気現象弱いしゅう雨 もや
全天の8割程度の雲 雲底高度 120m
全天の8割程度の積乱雲 雲底高度 520m
26日10時 VLAT ~ 26日13時 VLAT に徐々に
風向・風速西 3m/s
全天の8割程度の積乱雲 雲底高度 910m
TAF UHSS 251700Z 2518/2624 36003MPS 9999 BKN007 BKN020CB
TEMPO 2518/2523 2100 -SHRA BR BKN004 BKN017CB
BECMG 2600/2603 27003MPS BKN030CB